Baton Rouge, Louisiana
Current Conditions -  °F | °C
As of 5:53 AM on Friday 19 Dec 2014 (Local Time) from KBTR Reporting Station
Light Rain Light Rain  
Wind Chill: 54°   Ceiling: 500
Heat Index: 54°   Visibility: 10mi
Dew Point: 52°   Wind: 5mph
Humidity: 93%   Direction: 20°NNE
Pressure: 30.11"   Gusts: NA
Location:  30.44°N, 91.19°W
Report Text: KBTR 191153Z 02004KT 10SM -RA BKN005 OVC012 12/11 A3011 RMK AO2 CIG 003V009 SLP195 P0017 60101 70104 T01220111 10128 20117 53018
Loading
Personal Weather Stations






























Interactive Weather Map New forecast layout! Learn more

10-Day Weather Forecast

Advertisements
Track Severe Weather on mobile